sensor_id;sensor_type;location;lat;lon;timestamp;temperature;humidity
10581;DHT22;5338;51.500;6.802;2022-12-18T00:06:59;-5.10;99.90
10581;DHT22;5338;51.500;6.802;2022-12-18T00:19:14;-5.50;99.90
10581;DHT22;5338;51.500;6.802;2022-12-18T00:21:42;-5.30;99.90
10581;DHT22;5338;51.500;6.802;2022-12-18T00:24:11;-5.20;99.90
10581;DHT22;5338;51.500;6.802;2022-12-18T00:26:39;-5.20;99.90
10581;DHT22;5338;51.500;6.802;2022-12-18T00:29:08;-5.20;99.90
10581;DHT22;5338;51.500;6.802;2022-12-18T00:31:35;-6.20;99.90
10581;DHT22;5338;51.500;6.802;2022-12-18T00:36:30;-5.30;99.90
10581;DHT22;5338;51.500;6.802;2022-12-18T00:38:58;-5.40;99.90
10581;DHT22;5338;51.500;6.802;2022-12-18T00:41:27;-5.30;99.90
10581;DHT22;5338;51.500;6.802;2022-12-18T00:44:14;-5.40;99.90
10581;DHT22;5338;51.500;6.802;2022-12-18T00:49:08;-5.30;99.90
10581;DHT22;5338;51.500;6.802;2022-12-18T00:56:31;-5.30;99.90
10581;DHT22;5338;51.500;6.802;2022-12-18T01:06:19;-5.40;99.90
10581;DHT22;5338;51.500;6.802;2022-12-18T01:11:15;-5.40;99.90
10581;DHT22;5338;51.500;6.802;2022-12-18T01:13:43;-5.30;99.90
10581;DHT22;5338;51.500;6.802;2022-12-18T01:16:11;-5.40;99.90
10581;DHT22;5338;51.500;6.802;2022-12-18T01:21:07;-5.30;99.90
10581;DHT22;5338;51.500;6.802;2022-12-18T01:26:05;-5.40;99.90
10581;DHT22;5338;51.500;6.802;2022-12-18T01:28:32;-5.70;99.90
10581;DHT22;5338;51.500;6.802;2022-12-18T01:31:14;-5.40;99.90
10581;DHT22;5338;51.500;6.802;2022-12-18T01:36:08;-5.50;99.90
10581;DHT22;5338;51.500;6.802;2022-12-18T01:43:43;-5.60;99.90
10581;DHT22;5338;51.500;6.802;2022-12-18T01:46:12;-6.10;99.90
10581;DHT22;5338;51.500;6.802;2022-12-18T01:48:40;-5.50;99.90
10581;DHT22;5338;51.500;6.802;2022-12-18T01:51:09;-5.50;99.90
10581;DHT22;5338;51.500;6.802;2022-12-18T01:53:37;-5.40;99.90
10581;DHT22;5338;51.500;6.802;2022-12-18T01:58:37;-5.40;99.90
10581;DHT22;5338;51.500;6.802;2022-12-18T02:03:34;-5.40;99.90
10581;DHT22;5338;51.500;6.802;2022-12-18T02:06:06;-5.40;99.90
10581;DHT22;5338;51.500;6.802;2022-12-18T02:08:43;-5.30;99.90
10581;DHT22;5338;51.500;6.802;2022-12-18T02:11:17;-5.30;99.90
10581;DHT22;5338;51.500;6.802;2022-12-18T02:13:52;-5.40;99.90
10581;DHT22;5338;51.500;6.802;2022-12-18T02:16:25;-5.30;99.90
10581;DHT22;5338;51.500;6.802;2022-12-18T02:19:00;-4.80;99.90
10581;DHT22;5338;51.500;6.802;2022-12-18T02:21:34;-5.40;99.90
10581;DHT22;5338;51.500;6.802;2022-12-18T02:24:17;-5.40;99.90
10581;DHT22;5338;51.500;6.802;2022-12-18T02:26:48;-5.40;99.90
10581;DHT22;5338;51.500;6.802;2022-12-18T02:29:20;-5.50;99.90
10581;DHT22;5338;51.500;6.802;2022-12-18T02:31:51;-5.50;99.90
10581;DHT22;5338;51.500;6.802;2022-12-18T02:34:21;-5.60;99.90
10581;DHT22;5338;51.500;6.802;2022-12-18T02:36:50;-5.60;99.90
10581;DHT22;5338;51.500;6.802;2022-12-18T02:39:19;-5.70;99.90
10581;DHT22;5338;51.500;6.802;2022-12-18T02:41:48;-5.60;99.90
10581;DHT22;5338;51.500;6.802;2022-12-18T02:46:44;-5.60;99.90
10581;DHT22;5338;51.500;6.802;2022-12-18T02:49:21;-5.80;99.90
10581;DHT22;5338;51.500;6.802;2022-12-18T02:51:53;-5.50;99.90
10581;DHT22;5338;51.500;6.802;2022-12-18T02:54:36;-5.50;99.90
10581;DHT22;5338;51.500;6.802;2022-12-18T02:57:14;-5.50;99.90
10581;DHT22;5338;51.500;6.802;2022-12-18T02:59:47;-5.60;99.90
10581;DHT22;5338;51.500;6.802;2022-12-18T03:02:20;-5.60;99.90
10581;DHT22;5338;51.500;6.802;2022-12-18T03:04:54;-5.70;99.90
10581;DHT22;5338;51.500;6.802;2022-12-18T03:07:28;-5.60;99.90
10581;DHT22;5338;51.500;6.802;2022-12-18T03:10:00;-5.70;99.90
10581;DHT22;5338;51.500;6.802;2022-12-18T03:12:31;-5.70;99.90
10581;DHT22;5338;51.500;6.802;2022-12-18T03:15:02;-5.70;99.90
10581;DHT22;5338;51.500;6.802;2022-12-18T03:17:32;-5.70;99.90
10581;DHT22;5338;51.500;6.802;2022-12-18T03:20:04;-5.90;99.90
10581;DHT22;5338;51.500;6.802;2022-12-18T03:22:33;-5.80;99.90
10581;DHT22;5338;51.500;6.802;2022-12-18T03:25:03;-5.70;99.90
10581;DHT22;5338;51.500;6.802;2022-12-18T03:27:33;-5.80;99.90
10581;DHT22;5338;51.500;6.802;2022-12-18T03:30:04;-5.80;99.90
10581;DHT22;5338;51.500;6.802;2022-12-18T03:32:38;-5.80;99.90
10581;DHT22;5338;51.500;6.802;2022-12-18T03:35:07;-5.80;99.90
10581;DHT22;5338;51.500;6.802;2022-12-18T03:40:03;-5.80;99.90
10581;DHT22;5338;51.500;6.802;2022-12-18T03:42:35;-5.90;99.90
10581;DHT22;5338;51.500;6.802;2022-12-18T03:45:09;-5.80;99.90
10581;DHT22;5338;51.500;6.802;2022-12-18T03:47:41;-5.90;99.90
10581;DHT22;5338;51.500;6.802;2022-12-18T03:50:14;-5.90;99.90
10581;DHT22;5338;51.500;6.802;2022-12-18T03:52:46;-5.90;99.90
10581;DHT22;5338;51.500;6.802;2022-12-18T03:57:44;-6.00;99.90
10581;DHT22;5338;51.500;6.802;2022-12-18T04:00:13;-6.00;99.90
10581;DHT22;5338;51.500;6.802;2022-12-18T04:02:44;-6.10;99.90
10581;DHT22;5338;51.500;6.802;2022-12-18T04:05:12;-6.00;99.90
10581;DHT22;5338;51.500;6.802;2022-12-18T04:07:40;-6.00;99.90
10581;DHT22;5338;51.500;6.802;2022-12-18T04:10:08;-6.00;99.90
10581;DHT22;5338;51.500;6.802;2022-12-18T04:12:37;-5.90;99.90
10581;DHT22;5338;51.500;6.802;2022-12-18T04:15:06;-5.90;99.90
10581;DHT22;5338;51.500;6.802;2022-12-18T04:27:22;-5.90;99.90
10581;DHT22;5338;51.500;6.802;2022-12-18T04:29:49;-5.80;99.90
10581;DHT22;5338;51.500;6.802;2022-12-18T04:32:17;-6.00;99.90
10581;DHT22;5338;51.500;6.802;2022-12-18T04:49:28;-6.00;99.90
10581;DHT22;5338;51.500;6.802;2022-12-18T05:06:39;-6.00;99.90
10581;DHT22;5338;51.500;6.802;2022-12-18T05:11:36;-6.00;99.90
10581;DHT22;5338;51.500;6.802;2022-12-18T05:23:52;-6.00;99.90
10581;DHT22;5338;51.500;6.802;2022-12-18T05:36:08;-5.90;99.90
10581;DHT22;5338;51.500;6.802;2022-12-18T05:38:36;-6.00;99.90
10581;DHT22;5338;51.500;6.802;2022-12-18T05:41:06;-6.00;99.90
10581;DHT22;5338;51.500;6.802;2022-12-18T05:43:34;-5.70;99.90
10581;DHT22;5338;51.500;6.802;2022-12-18T05:46:04;-5.90;99.90
10581;DHT22;5338;51.500;6.802;2022-12-18T05:48:32;-5.90;99.90
10581;DHT22;5338;51.500;6.802;2022-12-18T05:51:04;-5.90;99.90
10581;DHT22;5338;51.500;6.802;2022-12-18T05:53:31;-6.00;99.90
10581;DHT22;5338;51.500;6.802;2022-12-18T05:56:00;-5.90;99.90
10581;DHT22;5338;51.500;6.802;2022-12-18T05:58:29;-5.90;99.90
10581;DHT22;5338;51.500;6.802;2022-12-18T06:03:23;-5.90;99.90
10581;DHT22;5338;51.500;6.802;2022-12-18T06:10:50;-5.90;99.90
10581;DHT22;5338;51.500;6.802;2022-12-18T06:15:46;-6.10;99.90
10581;DHT22;5338;51.500;6.802;2022-12-18T06:25:38;-6.00;99.90
10581;DHT22;5338;51.500;6.802;2022-12-18T06:28:05;-5.90;99.90
10581;DHT22;5338;51.500;6.802;2022-12-18T06:33:00;-6.10;99.90
10581;DHT22;5338;51.500;6.802;2022-12-18T06:50:12;-6.10;99.90
10581;DHT22;5338;51.500;6.802;2022-12-18T06:55:07;-6.20;99.90
10581;DHT22;5338;51.500;6.802;2022-12-18T07:07:24;-6.20;99.90
10581;DHT22;5338;51.500;6.802;2022-12-18T07:17:13;-6.10;99.90
10581;DHT22;5338;51.500;6.802;2022-12-18T07:24:35;-6.20;99.90
10581;DHT22;5338;51.500;6.802;2022-12-18T07:34:23;-6.00;99.90
10581;DHT22;5338;51.500;6.802;2022-12-18T07:41:45;-6.00;99.90
10581;DHT22;5338;51.500;6.802;2022-12-18T07:51:54;-5.80;99.90
10581;DHT22;5338;51.500;6.802;2022-12-18T07:56:51;-5.70;99.90
10581;DHT22;5338;51.500;6.802;2022-12-18T07:59:18;-5.50;99.90
10581;DHT22;5338;51.500;6.802;2022-12-18T08:14:02;-5.50;99.90
10581;DHT22;5338;51.500;6.802;2022-12-18T08:21:25;-5.10;99.90
10581;DHT22;5338;51.500;6.802;2022-12-18T08:23:54;-4.80;99.90
10581;DHT22;5338;51.500;6.802;2022-12-18T08:31:18;-3.80;99.90
10581;DHT22;5338;51.500;6.802;2022-12-18T08:33:45;-3.30;99.90
10581;DHT22;5338;51.500;6.802;2022-12-18T08:41:07;-2.50;99.90
10581;DHT22;5338;51.500;6.802;2022-12-18T08:43:34;-2.00;99.90
10581;DHT22;5338;51.500;6.802;2022-12-18T08:46:21;-1.50;99.90
10581;DHT22;5338;51.500;6.802;2022-12-18T08:48:50;-0.70;99.90
10581;DHT22;5338;51.500;6.802;2022-12-18T08:51:18;0.10;99.90
10581;DHT22;5338;51.500;6.802;2022-12-18T08:53:46;-0.70;99.90
10581;DHT22;5338;51.500;6.802;2022-12-18T08:56:14;-0.70;99.90
10581;DHT22;5338;51.500;6.802;2022-12-18T09:01:10;-0.80;99.90
10581;DHT22;5338;51.500;6.802;2022-12-18T09:03:39;-0.90;99.90
10581;DHT22;5338;51.500;6.802;2022-12-18T09:06:06;-0.90;99.90
10581;DHT22;5338;51.500;6.802;2022-12-18T09:18:24;-1.20;99.90
10581;DHT22;5338;51.500;6.802;2022-12-18T09:20:52;-0.80;99.90
10581;DHT22;5338;51.500;6.802;2022-12-18T09:23:19;-0.60;99.90
10581;DHT22;5338;51.500;6.802;2022-12-18T09:28:14;0.20;99.90
10581;DHT22;5338;51.500;6.802;2022-12-18T09:30:43;1.00;99.90
10581;DHT22;5338;51.500;6.802;2022-12-18T09:33:11;1.40;99.90
10581;DHT22;5338;51.500;6.802;2022-12-18T09:35:38;2.30;99.90
10581;DHT22;5338;51.500;6.802;2022-12-18T09:38:08;2.00;99.90
10581;DHT22;5338;51.500;6.802;2022-12-18T09:40:43;2.30;99.90
10581;DHT22;5338;51.500;6.802;2022-12-18T09:43:16;2.40;99.90
10581;DHT22;5338;51.500;6.802;2022-12-18T09:45:46;2.30;99.90
10581;DHT22;5338;51.500;6.802;2022-12-18T09:48:18;2.10;99.90
10581;DHT22;5338;51.500;6.802;2022-12-18T09:50:46;2.00;99.90
10581;DHT22;5338;51.500;6.802;2022-12-18T09:53:17;2.50;99.90
10581;DHT22;5338;51.500;6.802;2022-12-18T09:55:46;1.50;99.90
10581;DHT22;5338;51.500;6.802;2022-12-18T09:58:17;1.10;99.90
10581;DHT22;5338;51.500;6.802;2022-12-18T10:03:15;0.80;99.90
10581;DHT22;5338;51.500;6.802;2022-12-18T10:05:49;0.70;99.90
10581;DHT22;5338;51.500;6.802;2022-12-18T10:08:24;0.80;99.90
10581;DHT22;5338;51.500;6.802;2022-12-18T10:10:53;0.80;99.90
10581;DHT22;5338;51.500;6.802;2022-12-18T10:13:31;0.70;99.90
10581;DHT22;5338;51.500;6.802;2022-12-18T10:16:08;0.70;99.90
10581;DHT22;5338;51.500;6.802;2022-12-18T10:18:57;0.60;99.90
10581;DHT22;5338;51.500;6.802;2022-12-18T10:21:32;0.70;99.90
10581;DHT22;5338;51.500;6.802;2022-12-18T10:24:08;0.70;99.90
10581;DHT22;5338;51.500;6.802;2022-12-18T10:26:39;0.80;99.90
10581;DHT22;5338;51.500;6.802;2022-12-18T10:29:10;0.90;99.90
10581;DHT22;5338;51.500;6.802;2022-12-18T10:34:09;1.10;99.90
10581;DHT22;5338;51.500;6.802;2022-12-18T10:39:17;1.60;99.90
10581;DHT22;5338;51.500;6.802;2022-12-18T10:44:16;2.10;99.90
10581;DHT22;5338;51.500;6.802;2022-12-18T10:46:44;2.10;95.10
10581;DHT22;5338;51.500;6.802;2022-12-18T10:49:21;2.00;92.90
10581;DHT22;5338;51.500;6.802;2022-12-18T10:54:18;1.90;91.80
10581;DHT22;5338;51.500;6.802;2022-12-18T10:59:15;1.70;91.50
10581;DHT22;5338;51.500;6.802;2022-12-18T11:01:51;1.70;92.80
10581;DHT22;5338;51.500;6.802;2022-12-18T11:04:22;1.60;96.40
10581;DHT22;5338;51.500;6.802;2022-12-18T11:06:54;1.50;90.10
10581;DHT22;5338;51.500;6.802;2022-12-18T11:09:24;1.40;91.40
10581;DHT22;5338;51.500;6.802;2022-12-18T11:11:52;1.40;91.70
10581;DHT22;5338;51.500;6.802;2022-12-18T11:14:22;1.50;91.40
10581;DHT22;5338;51.500;6.802;2022-12-18T11:16:51;1.50;91.50
10581;DHT22;5338;51.500;6.802;2022-12-18T11:19:28;1.50;91.50
10581;DHT22;5338;51.500;6.802;2022-12-18T11:24:28;1.60;89.10
10581;DHT22;5338;51.500;6.802;2022-12-18T11:26:57;1.60;83.50
10581;DHT22;5338;51.500;6.802;2022-12-18T11:29:32;1.60;84.50
10581;DHT22;5338;51.500;6.802;2022-12-18T11:32:32;1.60;85.80
10581;DHT22;5338;51.500;6.802;2022-12-18T11:35:11;1.60;87.60
10581;DHT22;5338;51.500;6.802;2022-12-18T11:37:40;1.60;88.80
10581;DHT22;5338;51.500;6.802;2022-12-18T11:40:14;1.60;91.00
10581;DHT22;5338;51.500;6.802;2022-12-18T11:42:48;1.50;88.70
10581;DHT22;5338;51.500;6.802;2022-12-18T11:45:28;1.50;88.80
10581;DHT22;5338;51.500;6.802;2022-12-18T11:47:59;1.40;88.70
10581;DHT22;5338;51.500;6.802;2022-12-18T11:50:31;1.40;91.20
10581;DHT22;5338;51.500;6.802;2022-12-18T11:55:33;1.50;86.00
10581;DHT22;5338;51.500;6.802;2022-12-18T11:58:07;1.50;87.20
10581;DHT22;5338;51.500;6.802;2022-12-18T12:00:42;1.40;87.50
10581;DHT22;5338;51.500;6.802;2022-12-18T12:03:27;1.50;87.30
10581;DHT22;5338;51.500;6.802;2022-12-18T12:06:08;1.50;85.40
10581;DHT22;5338;51.500;6.802;2022-12-18T12:08:47;1.50;84.60
10581;DHT22;5338;51.500;6.802;2022-12-18T12:11:22;1.50;84.50
10581;DHT22;5338;51.500;6.802;2022-12-18T12:14:01;1.50;85.00
10581;DHT22;5338;51.500;6.802;2022-12-18T12:16:37;1.40;83.70
10581;DHT22;5338;51.500;6.802;2022-12-18T12:19:19;1.40;83.30
10581;DHT22;5338;51.500;6.802;2022-12-18T12:21:53;1.60;84.40
10581;DHT22;5338;51.500;6.802;2022-12-18T12:24:30;1.30;83.60
10581;DHT22;5338;51.500;6.802;2022-12-18T12:27:08;1.40;83.10
10581;DHT22;5338;51.500;6.802;2022-12-18T12:29:46;1.50;82.40
10581;DHT22;5338;51.500;6.802;2022-12-18T12:32:32;1.40;83.00
10581;DHT22;5338;51.500;6.802;2022-12-18T12:35:12;1.50;81.40
10581;DHT22;5338;51.500;6.802;2022-12-18T12:37:49;1.50;81.20
10581;DHT22;5338;51.500;6.802;2022-12-18T12:40:26;1.40;79.80
10581;DHT22;5338;51.500;6.802;2022-12-18T12:42:58;1.40;80.00
10581;DHT22;5338;51.500;6.802;2022-12-18T12:45:46;1.40;81.30
10581;DHT22;5338;51.500;6.802;2022-12-18T12:48:19;1.30;82.80
10581;DHT22;5338;51.500;6.802;2022-12-18T12:50:47;1.40;84.90
10581;DHT22;5338;51.500;6.802;2022-12-18T12:53:23;1.40;83.70
10581;DHT22;5338;51.500;6.802;2022-12-18T12:55:52;1.40;82.30
10581;DHT22;5338;51.500;6.802;2022-12-18T12:58:28;1.40;83.70
10581;DHT22;5338;51.500;6.802;2022-12-18T13:01:05;1.20;85.00
10581;DHT22;5338;51.500;6.802;2022-12-18T13:03:43;1.20;92.90
10581;DHT22;5338;51.500;6.802;2022-12-18T13:06:18;1.30;86.70
10581;DHT22;5338;51.500;6.802;2022-12-18T13:08:55;1.30;87.40
10581;DHT22;5338;51.500;6.802;2022-12-18T13:11:31;1.30;90.00
10581;DHT22;5338;51.500;6.802;2022-12-18T13:14:23;1.30;88.10
10581;DHT22;5338;51.500;6.802;2022-12-18T13:19:26;1.20;85.70
10581;DHT22;5338;51.500;6.802;2022-12-18T13:21:54;1.20;88.00
10581;DHT22;5338;51.500;6.802;2022-12-18T13:24:25;1.20;86.30
10581;DHT22;5338;51.500;6.802;2022-12-18T13:29:44;1.10;85.60
10581;DHT22;5338;51.500;6.802;2022-12-18T13:32:21;1.20;85.90
10581;DHT22;5338;51.500;6.802;2022-12-18T13:37:51;1.20;85.70
10581;DHT22;5338;51.500;6.802;2022-12-18T13:43:36;1.10;88.40
10581;DHT22;5338;51.500;6.802;2022-12-18T13:46:18;1.10;87.60
10581;DHT22;5338;51.500;6.802;2022-12-18T13:48:51;1.10;87.00
10581;DHT22;5338;51.500;6.802;2022-12-18T13:51:20;1.00;86.40
10581;DHT22;5338;51.500;6.802;2022-12-18T13:53:50;1.10;84.80
10581;DHT22;5338;51.500;6.802;2022-12-18T13:56:23;1.10;84.50
10581;DHT22;5338;51.500;6.802;2022-12-18T13:59:20;1.10;85.00
10581;DHT22;5338;51.500;6.802;2022-12-18T14:01:52;1.10;86.20
10581;DHT22;5338;51.500;6.802;2022-12-18T14:04:22;1.00;85.60
10581;DHT22;5338;51.500;6.802;2022-12-18T14:06:52;1.10;88.60
10581;DHT22;5338;51.500;6.802;2022-12-18T14:09:24;1.10;82.60
10581;DHT22;5338;51.500;6.802;2022-12-18T14:11:53;1.10;82.50
10581;DHT22;5338;51.500;6.802;2022-12-18T14:14:44;1.10;81.90
10581;DHT22;5338;51.500;6.802;2022-12-18T14:17:13;1.10;81.20
10581;DHT22;5338;51.500;6.802;2022-12-18T14:19:42;1.10;82.20
10581;DHT22;5338;51.500;6.802;2022-12-18T14:22:20;1.00;82.60
10581;DHT22;5338;51.500;6.802;2022-12-18T14:24:58;1.00;81.30
10581;DHT22;5338;51.500;6.802;2022-12-18T14:32:27;1.00;82.10
10581;DHT22;5338;51.500;6.802;2022-12-18T14:37:24;1.00;80.50
10581;DHT22;5338;51.500;6.802;2022-12-18T14:39:57;1.00;82.00
10581;DHT22;5338;51.500;6.802;2022-12-18T14:47:56;0.90;82.50
10581;DHT22;5338;51.500;6.802;2022-12-18T14:52:50;1.20;82.10
10581;DHT22;5338;51.500;6.802;2022-12-18T14:55:19;0.90;81.90
10581;DHT22;5338;51.500;6.802;2022-12-18T14:57:53;1.00;82.30
10581;DHT22;5338;51.500;6.802;2022-12-18T15:00:23;0.90;81.30
10581;DHT22;5338;51.500;6.802;2022-12-18T15:02:53;0.90;82.40
10581;DHT22;5338;51.500;6.802;2022-12-18T15:05:25;0.90;82.30
10581;DHT22;5338;51.500;6.802;2022-12-18T15:07:55;0.90;83.00
10581;DHT22;5338;51.500;6.802;2022-12-18T15:10:25;0.90;82.40
10581;DHT22;5338;51.500;6.802;2022-12-18T15:13:08;0.70;81.30
10581;DHT22;5338;51.500;6.802;2022-12-18T15:15:46;0.90;82.60
10581;DHT22;5338;51.500;6.802;2022-12-18T15:18:16;0.90;83.60
10581;DHT22;5338;51.500;6.802;2022-12-18T15:20:49;0.70;84.80
10581;DHT22;5338;51.500;6.802;2022-12-18T15:23:18;0.70;86.50
10581;DHT22;5338;51.500;6.802;2022-12-18T15:25:46;0.80;85.30
10581;DHT22;5338;51.500;6.802;2022-12-18T15:28:19;0.80;84.50
10581;DHT22;5338;51.500;6.802;2022-12-18T15:31:04;0.90;83.40
10581;DHT22;5338;51.500;6.802;2022-12-18T15:33:33;0.80;84.00
10581;DHT22;5338;51.500;6.802;2022-12-18T15:36:04;0.80;83.60
10581;DHT22;5338;51.500;6.802;2022-12-18T15:40:58;0.80;85.40
10581;DHT22;5338;51.500;6.802;2022-12-18T15:43:26;0.80;85.70
10581;DHT22;5338;51.500;6.802;2022-12-18T15:46:03;0.80;84.40
10581;DHT22;5338;51.500;6.802;2022-12-18T15:48:32;0.80;84.40
10581;DHT22;5338;51.500;6.802;2022-12-18T15:51:02;0.80;86.40
10581;DHT22;5338;51.500;6.802;2022-12-18T15:53:32;0.80;86.20
10581;DHT22;5338;51.500;6.802;2022-12-18T15:56:00;0.80;87.50
10581;DHT22;5338;51.500;6.802;2022-12-18T16:06:09;0.80;87.60
10581;DHT22;5338;51.500;6.802;2022-12-18T16:15:57;0.80;91.20
10581;DHT22;5338;51.500;6.802;2022-12-18T16:23:19;0.60;99.90
10581;DHT22;5338;51.500;6.802;2022-12-18T16:33:09;0.70;95.30
10581;DHT22;5338;51.500;6.802;2022-12-18T16:40:32;0.60;97.60
10581;DHT22;5338;51.500;6.802;2022-12-18T16:55:36;0.50;99.90
10581;DHT22;5338;51.500;6.802;2022-12-18T17:00:30;0.40;99.90
10581;DHT22;5338;51.500;6.802;2022-12-18T17:07:51;0.60;99.90
10581;DHT22;5338;51.500;6.802;2022-12-18T17:12:46;0.40;99.90
10581;DHT22;5338;51.500;6.802;2022-12-18T17:20:08;0.50;99.90
10581;DHT22;5338;51.500;6.802;2022-12-18T17:29:57;0.40;99.90
10581;DHT22;5338;51.500;6.802;2022-12-18T17:47:08;0.30;99.90
10581;DHT22;5338;51.500;6.802;2022-12-18T18:04:22;0.30;99.90
10581;DHT22;5338;51.500;6.802;2022-12-18T18:19:32;0.30;99.90
10581;DHT22;5338;51.500;6.802;2022-12-18T18:22:00;0.30;99.90
10581;DHT22;5338;51.500;6.802;2022-12-18T18:31:57;0.30;99.90
10581;DHT22;5338;51.500;6.802;2022-12-18T18:34:24;0.20;99.90
10581;DHT22;5338;51.500;6.802;2022-12-18T18:36:53;0.00;99.90
10581;DHT22;5338;51.500;6.802;2022-12-18T18:44:15;0.40;99.90
10581;DHT22;5338;51.500;6.802;2022-12-18T18:49:09;0.20;99.90
10581;DHT22;5338;51.500;6.802;2022-12-18T18:51:38;0.20;99.90
10581;DHT22;5338;51.500;6.802;2022-12-18T18:54:06;0.30;99.90
10581;DHT22;5338;51.500;6.802;2022-12-18T18:56:33;0.10;99.90
10581;DHT22;5338;51.500;6.802;2022-12-18T19:06:23;0.20;99.90
10581;DHT22;5338;51.500;6.802;2022-12-18T19:08:51;0.20;99.90
10581;DHT22;5338;51.500;6.802;2022-12-18T19:11:21;-0.10;99.90
10581;DHT22;5338;51.500;6.802;2022-12-18T19:14:08;0.30;99.90
10581;DHT22;5338;51.500;6.802;2022-12-18T19:16:35;0.30;99.90
10581;DHT22;5338;51.500;6.802;2022-12-18T19:19:02;0.30;99.90
10581;DHT22;5338;51.500;6.802;2022-12-18T19:26:26;0.30;99.90
10581;DHT22;5338;51.500;6.802;2022-12-18T19:28:53;0.00;99.90
10581;DHT22;5338;51.500;6.802;2022-12-18T19:31:23;0.30;99.90
10581;DHT22;5338;51.500;6.802;2022-12-18T19:36:19;0.40;99.90
10581;DHT22;5338;51.500;6.802;2022-12-18T19:41:14;0.30;99.90
10581;DHT22;5338;51.500;6.802;2022-12-18T19:43:44;0.30;99.90
10581;DHT22;5338;51.500;6.802;2022-12-18T19:46:13;0.30;99.90
10581;DHT22;5338;51.500;6.802;2022-12-18T19:48:41;0.30;99.90
10581;DHT22;5338;51.500;6.802;2022-12-18T19:51:11;0.40;99.90
10581;DHT22;5338;51.500;6.802;2022-12-18T19:56:08;0.30;99.90
10581;DHT22;5338;51.500;6.802;2022-12-18T20:01:04;0.30;99.90
10581;DHT22;5338;51.500;6.802;2022-12-18T20:06:07;0.40;99.90
10581;DHT22;5338;51.500;6.802;2022-12-18T20:18:25;0.50;99.90
10581;DHT22;5338;51.500;6.802;2022-12-18T20:35:37;0.60;99.90
10581;DHT22;5338;51.500;6.802;2022-12-18T20:40:31;0.60;99.90
10581;DHT22;5338;51.500;6.802;2022-12-18T20:45:27;0.60;99.90
10581;DHT22;5338;51.500;6.802;2022-12-18T20:47:57;0.60;99.90
10581;DHT22;5338;51.500;6.802;2022-12-18T20:52:53;0.70;99.90
10581;DHT22;5338;51.500;6.802;2022-12-18T21:10:08;0.60;99.90
10581;DHT22;5338;51.500;6.802;2022-12-18T21:17:38;0.60;99.90
10581;DHT22;5338;51.500;6.802;2022-12-18T21:20:06;0.60;99.90
10581;DHT22;5338;51.500;6.802;2022-12-18T21:22:36;0.70;99.90
10581;DHT22;5338;51.500;6.802;2022-12-18T21:25:04;0.60;99.90
10581;DHT22;5338;51.500;6.802;2022-12-18T21:27:32;0.60;99.90
10581;DHT22;5338;51.500;6.802;2022-12-18T21:45:02;0.20;99.90
10581;DHT22;5338;51.500;6.802;2022-12-18T22:02:15;0.50;99.90
10581;DHT22;5338;51.500;6.802;2022-12-18T22:04:43;0.50;99.90
10581;DHT22;5338;51.500;6.802;2022-12-18T22:07:10;0.50;99.90
10581;DHT22;5338;51.500;6.802;2022-12-18T22:12:06;0.50;99.90
10581;DHT22;5338;51.500;6.802;2022-12-18T22:19:29;0.50;99.90
10581;DHT22;5338;51.500;6.802;2022-12-18T22:24:24;0.30;99.90
10581;DHT22;5338;51.500;6.802;2022-12-18T22:29:23;0.50;99.90
10581;DHT22;5338;51.500;6.802;2022-12-18T22:32:09;0.60;99.90
10581;DHT22;5338;51.500;6.802;2022-12-18T22:34:38;0.60;99.90
10581;DHT22;5338;51.500;6.802;2022-12-18T22:46:54;0.40;99.90
10581;DHT22;5338;51.500;6.802;2022-12-18T22:49:24;0.60;99.90
10581;DHT22;5338;51.500;6.802;2022-12-18T22:51:53;0.60;99.90
10581;DHT22;5338;51.500;6.802;2022-12-18T22:54:21;0.70;99.90
10581;DHT22;5338;51.500;6.802;2022-12-18T22:59:16;0.70;99.90
10581;DHT22;5338;51.500;6.802;2022-12-18T23:09:09;0.70;99.90
10581;DHT22;5338;51.500;6.802;2022-12-18T23:26:24;0.80;99.90
10581;DHT22;5338;51.500;6.802;2022-12-18T23:28:52;0.00;99.90
10581;DHT22;5338;51.500;6.802;2022-12-18T23:31:22;0.80;99.90
10581;DHT22;5338;51.500;6.802;2022-12-18T23:33:49;0.80;99.90
10581;DHT22;5338;51.500;6.802;2022-12-18T23:36:17;0.80;99.90
10581;DHT22;5338;51.500;6.802;2022-12-18T23:38:47;0.80;99.90
10581;DHT22;5338;51.500;6.802;2022-12-18T23:41:14;0.90;99.90
10581;DHT22;5338;51.500;6.802;2022-12-18T23:43:43;0.90;99.90
10581;DHT22;5338;51.500;6.802;2022-12-18T23:46:11;0.80;99.90
10581;DHT22;5338;51.500;6.802;2022-12-18T23:51:06;0.90;99.90
10581;DHT22;5338;51.500;6.802;2022-12-18T23:56:01;0.90;99.90
